createdAt,value
2023-01-27T00:01:11.764Z,460.49
2023-01-27T00:04:18.352Z,464.07
2023-01-27T00:07:29.828Z,453.33
2023-01-27T00:10:36.770Z,463.12
2023-01-27T00:13:40.077Z,460.21
2023-01-27T00:16:46.615Z,471.73
2023-01-27T00:19:52.399Z,472.34
2023-01-27T00:23:13.952Z,496.18
2023-01-27T00:26:22.692Z,500.93
2023-01-27T00:29:29.486Z,475.89
2023-01-27T00:32:48.399Z,490.06
2023-01-27T00:36:02.263Z,500.66
2023-01-27T00:39:14.237Z,749.33
2023-01-27T00:42:23.308Z,637.60
2023-01-27T00:45:41.616Z,525.71
2023-01-27T00:49:02.377Z,501.29
2023-01-27T00:52:10.421Z,505.01
2023-01-27T00:55:19.502Z,513.67
2023-01-27T00:58:26.253Z,503.98
2023-01-27T01:01:34.087Z,523.15
2023-01-27T01:04:40.990Z,538.16
2023-01-27T01:07:46.726Z,534.37
2023-01-27T01:10:56.051Z,521.66
2023-01-27T01:14:01.945Z,515.60
2023-01-27T01:17:08.466Z,504.91
2023-01-27T01:20:15.995Z,502.93
2023-01-27T01:23:25.286Z,512.20
2023-01-27T01:26:33.635Z,514.10
2023-01-27T01:29:40.135Z,527.99
2023-01-27T01:32:45.879Z,564.89
2023-01-27T01:35:52.446Z,607.85
2023-01-27T01:38:59.305Z,559.49
2023-01-27T01:42:08.534Z,521.22
2023-01-27T01:45:54.580Z,524.05
2023-01-27T01:49:06.488Z,469.96
2023-01-27T01:52:19.620Z,474.81
2023-01-27T01:55:28.043Z,476.11
2023-01-27T01:58:39.639Z,476.75
2023-01-27T02:01:46.355Z,470.59
2023-01-27T02:05:03.147Z,491.96
2023-01-27T02:08:19.582Z,482.81
2023-01-27T02:11:26.266Z,477.18
2023-01-27T02:14:36.970Z,459.69
2023-01-27T02:17:43.197Z,460.22
2023-01-27T02:20:53.862Z,454.30
2023-01-27T02:24:12.519Z,450.50
2023-01-27T02:27:21.825Z,458.17
2023-01-27T02:30:27.871Z,482.07
2023-01-27T02:33:34.633Z,507.40
2023-01-27T02:36:50.757Z,503.58
2023-01-27T02:40:03.957Z,644.76
2023-01-27T02:43:13.447Z,610.04
2023-01-27T02:46:20.623Z,586.02
2023-01-27T02:49:27.261Z,574.34
2023-01-27T02:52:33.010Z,556.87
2023-01-27T02:55:39.668Z,553.95
2023-01-27T02:58:48.724Z,551.32
2023-01-27T03:01:58.744Z,558.69
2023-01-27T03:05:08.477Z,585.01
2023-01-27T03:08:15.317Z,582.51
2023-01-27T03:11:41.764Z,659.26
2023-01-27T03:15:04.053Z,610.32
2023-01-27T03:18:16.781Z,559.39
2023-01-27T03:21:24.147Z,552.59
2023-01-27T03:24:30.859Z,510.05
2023-01-27T03:27:41.894Z,499.92
2023-01-27T03:31:19.755Z,480.50
2023-01-27T03:38:37.726Z,437.69
2023-01-27T03:54:08.203Z,411.37
2023-01-27T03:57:15.546Z,407.75
2023-01-27T04:08:05.560Z,415.19
2023-01-27T04:11:27.972Z,398.66
2023-01-27T04:18:27.620Z,381.66
2023-01-27T05:03:55.760Z,373.94
2023-01-27T05:07:02.645Z,356.11
2023-01-27T05:10:11.682Z,367.66
2023-01-27T05:29:10.048Z,369.95
2023-01-27T05:32:20.047Z,366.55
2023-01-27T05:47:02.491Z,351.30
2023-01-27T05:50:14.562Z,351.20
2023-01-27T05:53:21.178Z,364.41
2023-01-27T05:56:28.546Z,368.09
2023-01-27T06:03:31.434Z,350.85
2023-01-27T07:43:20.036Z,270.02
2023-01-27T07:46:27.575Z,285.43
2023-01-27T07:49:33.700Z,276.05
2023-01-27T07:52:40.391Z,285.44
2023-01-27T07:55:46.406Z,292.79
2023-01-27T07:59:00.109Z,276.25
2023-01-27T08:02:09.771Z,281.48
2023-01-27T08:05:16.613Z,265.94
2023-01-27T08:08:22.524Z,277.81
2023-01-27T08:11:29.403Z,279.46
2023-01-27T08:14:38.676Z,322.88
2023-01-27T08:17:45.679Z,395.58
2023-01-27T08:20:53.061Z,637.76
2023-01-27T08:24:00.002Z,450.07
2023-01-27T08:27:08.194Z,410.72
2023-01-27T08:30:18.418Z,474.84
2023-01-27T08:33:29.251Z,402.53
2023-01-27T08:36:36.455Z,434.26
2023-01-27T08:39:42.616Z,340.86
2023-01-27T08:42:49.537Z,327.90
2023-01-27T08:46:00.547Z,350.59
2023-01-27T08:49:07.332Z,336.69
2023-01-27T08:52:14.080Z,410.19
2023-01-27T08:55:20.941Z,375.55
2023-01-27T08:58:27.377Z,345.47
2023-01-27T09:01:37.005Z,350.64
2023-01-27T09:04:45.430Z,406.47
2023-01-27T09:07:52.452Z,353.70
2023-01-27T09:10:58.380Z,344.69
2023-01-27T09:14:05.089Z,328.67
2023-01-27T09:17:17.339Z,317.79
2023-01-27T09:20:23.969Z,322.25
2023-01-27T09:23:29.939Z,327.84
2023-01-27T09:26:36.546Z,343.55
2023-01-27T09:29:42.521Z,357.49
2023-01-27T09:32:51.983Z,360.87
2023-01-27T09:36:05.384Z,343.64
2023-01-27T09:39:15.056Z,322.36
2023-01-27T09:43:18.184Z,329.12
2023-01-27T09:47:04.110Z,339.69
2023-01-27T09:50:43.176Z,317.98
2023-01-27T09:54:25.444Z,314.39
2023-01-27T09:57:52.334Z,333.88
2023-01-27T10:01:22.051Z,316.09
2023-01-27T10:05:18.105Z,326.15
2023-01-27T10:09:06.141Z,336.45
2023-01-27T10:12:37.451Z,324.96
2023-01-27T10:16:09.572Z,336.55
2023-01-27T10:20:01.967Z,358.74
2023-01-27T10:23:33.415Z,354.92
2023-01-27T10:26:50.251Z,395.84
2023-01-27T10:30:05.563Z,448.79
2023-01-27T10:33:54.394Z,343.99
2023-01-27T10:37:22.165Z,332.24
2023-01-27T10:40:48.700Z,305.77
2023-01-27T10:44:23.466Z,323.05
2023-01-27T10:47:53.455Z,436.18
2023-01-27T10:51:10.551Z,435.39
2023-01-27T10:54:27.903Z,438.27
2023-01-27T10:57:48.330Z,387.82
2023-01-27T11:04:40.367Z,341.06
2023-01-27T11:07:57.428Z,312.25
2023-01-27T11:11:22.712Z,322.86
2023-01-27T11:14:34.531Z,328.74
2023-01-27T11:17:55.530Z,352.97
2023-01-27T11:21:08.717Z,613.18
2023-01-27T11:24:28.892Z,303.76
2023-01-27T11:28:05.075Z,304.67
2023-01-27T11:31:32.491Z,308.36
2023-01-27T11:34:57.998Z,281.65
2023-01-27T11:38:15.396Z,279.27
2023-01-27T11:41:21.801Z,269.26
2023-01-27T11:44:35.163Z,269.44
2023-01-27T11:47:46.088Z,282.11
2023-01-27T11:50:55.661Z,284.87
2023-01-27T11:54:15.085Z,266.40
2023-01-27T11:57:37.416Z,255.18
2023-01-27T12:00:50.850Z,266.24
2023-01-27T12:04:09.901Z,294.23
2023-01-27T12:07:32.429Z,259.32
2023-01-27T12:10:43.077Z,267.22
2023-01-27T12:13:58.155Z,287.96
2023-01-27T12:17:10.624Z,261.13
2023-01-27T12:20:41.545Z,248.86
2023-01-27T12:23:59.186Z,243.33
2023-01-27T12:27:09.821Z,275.65
2023-01-27T12:30:26.103Z,284.49
2023-01-27T12:33:37.044Z,307.04
2023-01-27T12:36:47.569Z,304.82
2023-01-27T12:40:04.155Z,296.65
2023-01-27T12:43:20.094Z,299.21
2023-01-27T12:46:28.420Z,289.62
2023-01-27T12:49:40.548Z,280.97
2023-01-27T12:52:56.996Z,301.08
2023-01-27T12:56:18.214Z,281.54
2023-01-27T12:59:28.647Z,274.39
2023-01-27T13:02:37.631Z,279.33
2023-01-27T13:05:46.845Z,279.52
2023-01-27T13:08:56.338Z,286.02
2023-01-27T13:12:21.764Z,277.22
2023-01-27T13:15:32.258Z,300.84
2023-01-27T13:18:42.600Z,274.08
2023-01-27T13:21:56.937Z,289.08
2023-01-27T13:25:08.521Z,297.21
2023-01-27T13:28:28.995Z,333.99
2023-01-27T13:31:52.109Z,342.30
2023-01-27T13:35:16.746Z,319.70
2023-01-27T13:38:37.861Z,287.15
2023-01-27T13:41:54.741Z,309.39
2023-01-27T13:45:17.350Z,332.32
2023-01-27T13:48:32.582Z,342.49
2023-01-27T13:51:39.661Z,337.36
2023-01-27T13:54:46.609Z,302.47
2023-01-27T13:58:08.345Z,280.40
2023-01-27T14:01:42.533Z,279.25
2023-01-27T14:05:23.520Z,271.16
2023-01-27T14:08:57.558Z,269.66
2023-01-27T14:12:26.966Z,261.99
2023-01-27T14:15:47.787Z,261.01
2023-01-27T14:19:13.145Z,263.08
2023-01-27T14:22:35.523Z,277.58
2023-01-27T14:25:58.798Z,288.26
2023-01-27T14:29:32.508Z,309.83
2023-01-27T14:32:51.733Z,282.95
2023-01-27T14:36:23.274Z,269.35
2023-01-27T14:39:45.931Z,240.36
2023-01-27T14:43:13.970Z,269.27
2023-01-27T14:46:48.162Z,301.01
2023-01-27T14:50:17.962Z,313.98
2023-01-27T14:53:50.823Z,275.27
2023-01-27T14:57:24.802Z,344.37
2023-01-27T15:00:48.595Z,338.13
2023-01-27T15:04:28.689Z,247.05
2023-01-27T15:07:51.476Z,282.50
2023-01-27T15:11:35.048Z,265.40
2023-01-27T15:15:22.893Z,334.51
2023-01-27T15:19:06.887Z,258.23
2023-01-27T15:22:49.925Z,266.88
2023-01-27T15:26:07.102Z,308.58
2023-01-27T15:29:18.438Z,252.56
2023-01-27T15:32:39.983Z,263.84
2023-01-27T15:40:19.776Z,185.46
2023-01-27T15:43:33.902Z,221.57
2023-01-27T16:19:06.404Z,291.77
2023-01-27T16:22:24.204Z,336.82
2023-01-27T16:25:48.504Z,332.92
2023-01-27T16:29:22.600Z,383.07
2023-01-27T16:32:41.199Z,371.19
2023-01-27T16:35:57.548Z,342.30
2023-01-27T16:39:29.554Z,337.15
2023-01-27T16:42:42.369Z,333.98
2023-01-27T16:45:53.252Z,266.43
2023-01-27T16:49:00.586Z,244.31
2023-01-27T16:52:26.741Z,237.61
2023-01-27T16:55:39.709Z,260.74
2023-01-27T16:58:51.498Z,265.86
2023-01-27T17:02:05.017Z,216.83
2023-01-27T17:05:20.654Z,228.08
2023-01-27T17:08:35.936Z,237.64
2023-01-27T17:11:45.109Z,267.48
2023-01-27T17:14:51.774Z,231.65
2023-01-27T17:17:59.587Z,258.53
2023-01-27T17:21:07.495Z,263.40
2023-01-27T17:24:32.656Z,255.95
2023-01-27T17:27:48.905Z,249.57
2023-01-27T17:31:08.740Z,242.22
2023-01-27T17:34:28.530Z,261.12
2023-01-27T17:37:46.021Z,234.98
2023-01-27T17:40:58.572Z,224.82
2023-01-27T17:44:13.440Z,312.05
2023-01-27T17:47:28.315Z,377.90
2023-01-27T17:50:41.359Z,294.63
2023-01-27T17:53:48.664Z,233.92
2023-01-27T17:57:09.877Z,206.42
2023-01-27T18:00:33.627Z,211.01
2023-01-27T18:03:42.157Z,177.52
2023-01-27T18:06:49.691Z,215.87
2023-01-27T18:09:59.092Z,200.37
2023-01-27T18:13:39.212Z,191.87
2023-01-27T18:16:45.050Z,228.09
2023-01-27T18:19:57.459Z,221.76
2023-01-27T18:23:04.082Z,197.96
2023-01-27T18:26:21.429Z,207.53
2023-01-27T18:29:40.982Z,258.31
2023-01-27T18:32:53.328Z,223.16
2023-01-27T18:36:03.644Z,218.23
2023-01-27T18:39:32.641Z,263.69
2023-01-27T18:42:38.454Z,312.02
2023-01-27T18:45:48.452Z,264.89
2023-01-27T18:48:56.802Z,256.00
2023-01-27T18:52:03.405Z,318.64
2023-01-27T18:55:19.508Z,321.31
2023-01-27T18:58:26.093Z,353.05
2023-01-27T19:01:36.206Z,331.67
2023-01-27T19:04:43.497Z,301.68
2023-01-27T19:07:52.033Z,334.64
2023-01-27T19:10:58.959Z,274.01
2023-01-27T19:14:05.049Z,256.31
2023-01-27T19:17:24.408Z,237.99
2023-01-27T19:20:33.639Z,223.16
2023-01-27T19:23:44.874Z,225.91
2023-01-27T19:26:52.034Z,231.15
2023-01-27T19:29:58.728Z,248.41
2023-01-27T19:33:15.398Z,251.92
2023-01-27T19:36:30.165Z,293.43
2023-01-27T19:39:37.797Z,336.89
2023-01-27T19:42:45.079Z,264.70
2023-01-27T19:45:53.470Z,247.95
2023-01-27T19:49:03.338Z,259.61
2023-01-27T19:52:11.967Z,276.02
2023-01-27T19:55:20.543Z,239.63
2023-01-27T19:58:32.231Z,225.32
2023-01-27T20:01:38.939Z,264.76
2023-01-27T20:04:47.492Z,234.88
2023-01-27T20:07:54.844Z,223.91
2023-01-27T20:11:00.964Z,269.98
2023-01-27T20:14:15.773Z,212.38
2023-01-27T20:17:22.004Z,250.34
2023-01-27T20:20:32.894Z,229.71
2023-01-27T20:23:38.897Z,227.32
2023-01-27T20:26:45.792Z,234.99
2023-01-27T20:29:51.817Z,230.81
2023-01-27T20:32:59.099Z,263.48
2023-01-27T20:36:15.582Z,243.24
2023-01-27T20:39:22.436Z,317.16
2023-01-27T20:42:31.685Z,463.83
2023-01-27T20:45:39.448Z,434.21
2023-01-27T20:48:45.403Z,437.28
2023-01-27T20:51:55.580Z,372.89
2023-01-27T20:55:01.555Z,248.08
2023-01-27T20:58:08.373Z,258.48
2023-01-27T21:01:16.725Z,236.16
2023-01-27T21:04:23.459Z,226.49
2023-01-27T21:07:31.899Z,252.35
2023-01-27T21:10:38.659Z,254.37
2023-01-27T21:13:44.579Z,297.69
2023-01-27T21:16:51.185Z,302.98
2023-01-27T21:19:57.167Z,228.49
2023-01-27T21:23:10.629Z,276.05
2023-01-27T21:26:19.581Z,299.16
2023-01-27T21:29:28.505Z,239.86
2023-01-27T21:32:39.387Z,219.18
2023-01-27T21:35:48.206Z,287.97
2023-01-27T21:39:05.215Z,255.01
2023-01-27T21:42:28.870Z,243.33
2023-01-27T21:45:43.189Z,247.51
2023-01-27T21:48:51.099Z,291.80
2023-01-27T21:52:04.356Z,242.28
2023-01-27T21:55:17.367Z,253.90
2023-01-27T21:58:27.200Z,309.80
2023-01-27T22:01:37.224Z,242.98
2023-01-27T22:04:47.539Z,254.40
2023-01-27T22:07:55.034Z,289.51
2023-01-27T22:11:11.508Z,353.19
2023-01-27T22:14:20.860Z,496.96
2023-01-27T22:17:26.871Z,332.79
2023-01-27T22:20:34.968Z,292.73
2023-01-27T22:23:40.855Z,299.32
2023-01-27T22:26:50.125Z,313.23
2023-01-27T22:29:57.242Z,290.15
2023-01-27T22:33:04.092Z,269.49
2023-01-27T22:36:11.628Z,260.41
2023-01-27T22:39:18.679Z,258.23
2023-01-27T22:42:27.211Z,295.71
2023-01-27T22:45:33.891Z,283.29
2023-01-27T22:48:39.790Z,269.11
2023-01-27T22:51:48.637Z,264.21
2023-01-27T22:54:54.599Z,263.72
2023-01-27T22:58:03.767Z,258.69
2023-01-27T23:01:11.266Z,282.05
2023-01-27T23:04:18.295Z,283.56
2023-01-27T23:07:24.272Z,279.07
2023-01-27T23:10:31.064Z,286.17
2023-01-27T23:13:39.635Z,269.60
2023-01-27T23:16:46.560Z,268.60
2023-01-27T23:19:52.469Z,283.34
2023-01-27T23:22:59.060Z,284.44
2023-01-27T23:26:08.107Z,275.24
2023-01-27T23:29:24.597Z,287.35
2023-01-27T23:32:31.137Z,351.84
2023-01-27T23:35:37.815Z,299.71
2023-01-27T23:38:43.743Z,306.21
2023-01-27T23:41:50.459Z,306.25
2023-01-27T23:44:59.061Z,333.29
2023-01-27T23:48:08.937Z,274.97
2023-01-27T23:51:17.301Z,243.37
2023-01-27T23:54:23.897Z,310.82
2023-01-27T23:57:29.886Z,375.97
